createdAt,value
2017-06-09T00:00:30.076Z,97.90
2017-06-09T00:02:57.572Z,98.00
2017-06-09T00:05:25.008Z,98.00
2017-06-09T00:07:52.571Z,97.90
2017-06-09T00:10:20.037Z,97.90
2017-06-09T00:12:47.487Z,97.90
2017-06-09T00:15:14.943Z,97.90
2017-06-09T00:17:42.406Z,97.70
2017-06-09T00:20:09.851Z,97.60
2017-06-09T00:22:37.381Z,97.60
2017-06-09T00:25:04.871Z,97.70
2017-06-09T00:27:33.067Z,97.80
2017-06-09T00:30:00.551Z,97.70
2017-06-09T00:32:28.018Z,97.70
2017-06-09T00:34:55.470Z,97.70
2017-06-09T00:37:22.931Z,97.80
2017-06-09T00:39:50.495Z,97.80
2017-06-09T00:42:17.951Z,97.70
2017-06-09T00:44:45.395Z,97.80
2017-06-09T00:47:12.830Z,97.60
2017-06-09T00:49:40.267Z,97.60
2017-06-09T00:52:07.713Z,97.70
2017-06-09T00:54:35.264Z,97.70
2017-06-09T00:57:03.495Z,97.80
2017-06-09T00:59:30.957Z,97.70
2017-06-09T01:01:58.419Z,97.60
2017-06-09T01:04:25.851Z,97.70
2017-06-09T01:06:53.291Z,97.50
2017-06-09T01:09:20.734Z,97.50
2017-06-09T01:11:48.177Z,97.30
2017-06-09T01:14:16.415Z,97.40
2017-06-09T01:16:43.958Z,97.40
2017-06-09T01:19:11.424Z,97.40
2017-06-09T01:21:38.895Z,97.30
2017-06-09T01:24:06.324Z,97.10
2017-06-09T01:26:33.794Z,97.00
2017-06-09T01:29:01.243Z,97.20
2017-06-09T01:31:28.677Z,97.10
2017-06-09T01:33:56.259Z,97.10
2017-06-09T01:36:23.717Z,97.20
2017-06-09T01:38:51.151Z,97.00
2017-06-09T01:41:18.632Z,96.90
2017-06-09T01:43:46.192Z,97.00
2017-06-09T01:46:13.760Z,97.10
2017-06-09T01:48:41.198Z,97.00
2017-06-09T01:51:08.641Z,97.00
2017-06-09T01:53:36.123Z,97.00
2017-06-09T01:56:03.564Z,97.00
2017-06-09T01:58:30.996Z,97.10
2017-06-09T02:00:58.459Z,97.00
2017-06-09T02:03:25.935Z,96.90
2017-06-09T02:05:53.400Z,97.10
2017-06-09T02:08:20.843Z,97.10
2017-06-09T02:10:48.311Z,97.00
2017-06-09T02:13:15.760Z,97.30
2017-06-09T02:15:43.244Z,97.30
2017-06-09T02:18:10.774Z,97.20
2017-06-09T02:20:38.209Z,97.20
2017-06-09T02:23:05.692Z,97.10
2017-06-09T02:25:33.259Z,97.10
2017-06-09T02:28:00.699Z,97.00
2017-06-09T02:30:28.146Z,97.10
2017-06-09T02:32:55.630Z,97.20
2017-06-09T02:35:23.187Z,97.20
2017-06-09T02:37:50.631Z,97.20
2017-06-09T02:40:18.079Z,97.20
2017-06-09T02:42:45.547Z,97.40
2017-06-09T02:45:13.010Z,97.40
2017-06-09T02:47:40.463Z,97.40
2017-06-09T02:50:07.891Z,97.30
2017-06-09T02:52:35.372Z,97.60
2017-06-09T02:55:02.821Z,97.50
2017-06-09T02:57:30.267Z,97.90
2017-06-09T02:59:57.718Z,97.90
2017-06-09T03:02:25.227Z,97.70
2017-06-09T03:04:53.480Z,97.50
2017-06-09T03:07:20.923Z,97.50
2017-06-09T03:09:48.399Z,97.20
2017-06-09T03:12:15.939Z,97.10
2017-06-09T03:14:43.404Z,96.90
2017-06-09T03:17:10.845Z,96.90
2017-06-09T03:19:38.312Z,96.80
2017-06-09T03:22:05.767Z,96.70
2017-06-09T03:24:33.214Z,96.40
2017-06-09T03:27:00.649Z,96.40
2017-06-09T03:29:28.134Z,96.20
2017-06-09T03:32:01.267Z,96.00
2017-06-09T03:34:29.507Z,96.00
2017-06-09T03:36:56.940Z,95.60
2017-06-09T03:39:24.371Z,95.70
2017-06-09T03:41:51.880Z,95.50
2017-06-09T03:44:19.331Z,95.30
2017-06-09T03:46:46.769Z,95.30
2017-06-09T03:49:14.205Z,95.10
2017-06-09T03:51:41.655Z,94.90
2017-06-09T03:54:09.157Z,94.70
2017-06-09T03:56:36.619Z,94.70
2017-06-09T03:59:04.061Z,94.40
2017-06-09T04:01:31.495Z,94.40
2017-06-09T04:03:58.977Z,94.10
2017-06-09T04:06:26.509Z,94.00
2017-06-09T04:08:53.947Z,94.00
2017-06-09T04:11:21.379Z,94.00
2017-06-09T04:13:49.601Z,94.00
2017-06-09T04:16:17.031Z,94.00
2017-06-09T04:18:44.524Z,94.00
2017-06-09T04:21:11.980Z,94.00
2017-06-09T04:23:39.439Z,93.70
2017-06-09T04:26:06.903Z,93.40
2017-06-09T04:28:34.434Z,93.40
2017-06-09T04:31:01.947Z,93.00
2017-06-09T04:33:30.159Z,93.20
2017-06-09T04:35:57.635Z,93.00
2017-06-09T04:38:25.186Z,93.20
2017-06-09T04:40:52.622Z,92.80
2017-06-09T04:43:20.310Z,92.80
2017-06-09T04:45:47.775Z,92.70
2017-06-09T04:48:15.256Z,92.60
2017-06-09T04:50:42.672Z,92.30
2017-06-09T04:53:10.120Z,92.20
2017-06-09T04:55:37.592Z,92.10
2017-06-09T04:58:05.056Z,92.10
2017-06-09T05:00:32.496Z,91.50
2017-06-09T05:02:59.946Z,91.40
2017-06-09T05:05:27.435Z,90.90
2017-06-09T05:07:54.873Z,90.80
2017-06-09T05:10:22.307Z,90.40
2017-06-09T05:12:49.792Z,90.50
2017-06-09T05:15:17.234Z,89.90
2017-06-09T05:17:44.688Z,89.60
2017-06-09T05:20:12.121Z,89.50
2017-06-09T05:22:39.556Z,88.80
2017-06-09T05:25:07.763Z,88.30
2017-06-09T05:27:36.094Z,88.30
2017-06-09T05:30:03.523Z,87.90
2017-06-09T05:32:30.995Z,87.60
2017-06-09T05:34:58.552Z,88.50
2017-06-09T05:37:25.978Z,88.70
2017-06-09T05:39:53.430Z,88.40
2017-06-09T05:42:20.921Z,89.20
2017-06-09T05:44:48.467Z,88.00
2017-06-09T05:47:16.738Z,88.40
2017-06-09T05:49:44.191Z,88.30
2017-06-09T05:52:11.651Z,89.60
2017-06-09T05:54:39.112Z,89.40
2017-06-09T05:57:06.668Z,89.50
2017-06-09T05:59:34.203Z,89.50
2017-06-09T06:02:01.636Z,90.00
2017-06-09T06:04:29.068Z,90.10
2017-06-09T06:06:56.496Z,90.30
2017-06-09T06:09:24.057Z,90.30
2017-06-09T06:11:51.538Z,90.30
2017-06-09T06:14:19.064Z,90.20
2017-06-09T06:16:46.628Z,90.20
2017-06-09T06:19:14.081Z,90.20
2017-06-09T06:21:41.623Z,90.30
2017-06-09T06:24:09.108Z,90.10
2017-06-09T06:26:36.547Z,90.30
2017-06-09T06:29:03.987Z,90.10
2017-06-09T06:31:31.441Z,90.40
2017-06-09T06:33:58.883Z,90.60
2017-06-09T06:36:26.398Z,90.40
2017-06-09T06:38:54.019Z,90.00
2017-06-09T06:41:21.495Z,90.00
2017-06-09T06:43:48.952Z,90.00
2017-06-09T06:46:16.488Z,89.00
2017-06-09T06:48:43.945Z,89.50
2017-06-09T06:51:11.404Z,89.30
2017-06-09T06:53:38.972Z,87.90
2017-06-09T06:56:06.401Z,88.10
2017-06-09T06:58:33.851Z,88.00
2017-06-09T07:01:01.326Z,87.90
2017-06-09T07:03:28.791Z,87.50
2017-06-09T07:05:56.268Z,86.90
2017-06-09T07:08:23.707Z,87.40
2017-06-09T07:10:51.356Z,87.40
2017-06-09T07:13:18.838Z,86.40
2017-06-09T07:15:46.299Z,85.30
2017-06-09T07:18:13.743Z,85.20
2017-06-09T07:20:41.217Z,84.90
2017-06-09T07:23:08.671Z,85.30
2017-06-09T07:25:36.186Z,86.10
2017-06-09T07:28:03.684Z,84.40
2017-06-09T07:30:31.191Z,84.20
2017-06-09T07:32:58.628Z,85.00
2017-06-09T07:35:26.836Z,84.50
2017-06-09T07:37:55.079Z,84.50
2017-06-09T07:40:23.287Z,84.70
2017-06-09T07:42:50.822Z,84.60
2017-06-09T07:45:18.339Z,84.90
2017-06-09T07:47:45.783Z,83.90
2017-06-09T07:50:13.244Z,84.00
2017-06-09T07:52:40.683Z,83.80
2017-06-09T07:55:08.130Z,81.70
2017-06-09T07:57:35.605Z,82.80
2017-06-09T08:00:03.066Z,82.30
2017-06-09T08:02:30.562Z,82.30
2017-06-09T08:04:58.783Z,81.20
2017-06-09T08:07:26.275Z,80.20
2017-06-09T08:09:53.719Z,79.50
2017-06-09T08:12:21.163Z,79.60
2017-06-09T08:14:49.262Z,79.60
2017-06-09T08:17:16.775Z,78.90
2017-06-09T08:19:44.187Z,78.40
2017-06-09T08:22:12.566Z,77.70
2017-06-09T08:24:40.143Z,77.60
2017-06-09T08:27:08.336Z,78.00
2017-06-09T08:29:35.819Z,77.90
2017-06-09T08:32:03.809Z,77.60
2017-06-09T08:34:31.240Z,77.80
2017-06-09T08:36:59.455Z,78.30
2017-06-09T08:39:27.648Z,79.40
2017-06-09T08:41:55.132Z,80.20
2017-06-09T08:44:22.751Z,78.70
2017-06-09T08:46:50.362Z,79.00
2017-06-09T08:49:17.840Z,79.60
2017-06-09T08:51:45.380Z,80.20
2017-06-09T08:54:13.074Z,80.30
2017-06-09T08:56:40.629Z,80.10
2017-06-09T08:59:08.151Z,80.50
2017-06-09T09:01:35.725Z,80.10
2017-06-09T09:04:03.171Z,80.10
2017-06-09T09:06:30.599Z,80.00
2017-06-09T09:08:58.087Z,78.60
2017-06-09T09:11:25.548Z,78.00
2017-06-09T09:13:53.011Z,78.00
2017-06-09T09:16:20.546Z,78.30
2017-06-09T09:18:47.984Z,78.60
2017-06-09T09:21:15.424Z,78.80
2017-06-09T09:23:42.864Z,78.40
2017-06-09T09:26:10.371Z,79.20
2017-06-09T09:28:37.819Z,79.00
2017-06-09T09:31:05.265Z,79.00
2017-06-09T09:33:32.744Z,79.20
2017-06-09T09:36:00.212Z,78.70
2017-06-09T09:38:27.667Z,78.40
2017-06-09T09:40:55.193Z,78.00
2017-06-09T09:43:22.677Z,77.80
2017-06-09T09:45:50.127Z,77.60
2017-06-09T09:48:17.665Z,76.40
2017-06-09T09:50:45.110Z,75.70
2017-06-09T09:53:12.577Z,75.30
2017-06-09T09:55:40.055Z,74.10
2017-06-09T09:58:07.494Z,73.70
2017-06-09T10:00:35.062Z,73.80
2017-06-09T10:03:02.527Z,73.70
2017-06-09T10:05:29.980Z,72.20
2017-06-09T10:07:57.542Z,72.10
2017-06-09T10:10:24.983Z,71.20
2017-06-09T10:12:52.559Z,70.40
2017-06-09T10:15:20.025Z,70.80
2017-06-09T10:17:47.560Z,69.80
2017-06-09T10:20:14.988Z,68.70
2017-06-09T10:22:42.488Z,68.70
2017-06-09T10:25:09.943Z,69.00
2017-06-09T10:27:37.428Z,68.60
2017-06-09T10:30:05.668Z,68.40
2017-06-09T10:32:33.102Z,68.30
2017-06-09T10:35:00.573Z,68.50
2017-06-09T10:37:28.175Z,68.20
2017-06-09T10:39:55.603Z,67.70
2017-06-09T10:42:23.069Z,67.60
2017-06-09T10:44:50.497Z,66.60
2017-06-09T10:47:18.211Z,65.40
2017-06-09T10:49:46.544Z,61.10
2017-06-09T10:52:14.039Z,60.50
2017-06-09T10:54:42.300Z,61.20
2017-06-09T10:57:09.844Z,60.90
2017-06-09T10:59:37.290Z,60.70
2017-06-09T11:02:04.763Z,60.80
2017-06-09T11:04:32.225Z,62.00
2017-06-09T11:06:59.688Z,62.00
2017-06-09T11:09:27.144Z,61.60
2017-06-09T11:11:54.585Z,62.70
2017-06-09T11:14:22.037Z,62.90
2017-06-09T11:16:49.495Z,63.00
2017-06-09T11:19:16.949Z,63.30
2017-06-09T11:21:44.427Z,63.20
2017-06-09T11:24:12.065Z,63.30
2017-06-09T11:26:39.492Z,63.20
2017-06-09T11:29:06.969Z,63.60
2017-06-09T11:31:34.513Z,63.10
2017-06-09T11:34:01.982Z,64.20
2017-06-09T11:36:29.444Z,62.90
2017-06-09T11:38:56.904Z,63.50
2017-06-09T11:41:24.441Z,63.30
2017-06-09T11:43:51.871Z,63.30
2017-06-09T11:46:20.087Z,64.10
2017-06-09T11:48:47.583Z,64.00
2017-06-09T11:51:15.803Z,65.30
2017-06-09T11:53:43.251Z,65.30
2017-06-09T11:56:11.672Z,64.60
2017-06-09T11:58:39.974Z,64.40
2017-06-09T12:01:08.178Z,65.00
2017-06-09T12:03:36.199Z,65.00
2017-06-09T12:06:03.860Z,65.00
2017-06-09T12:08:31.314Z,65.10
2017-06-09T12:10:58.859Z,65.60
2017-06-09T12:13:26.419Z,65.10
2017-06-09T12:15:53.867Z,65.30
2017-06-09T12:18:21.342Z,65.10
2017-06-09T12:20:48.868Z,64.90
2017-06-09T12:23:16.435Z,66.00
2017-06-09T12:25:43.882Z,64.60
2017-06-09T12:28:11.319Z,64.10
2017-06-09T12:30:38.819Z,64.50
2017-06-09T12:33:06.266Z,63.90
2017-06-09T12:35:33.735Z,64.40
2017-06-09T12:38:01.191Z,64.40
2017-06-09T12:40:28.639Z,63.80
2017-06-09T12:42:56.171Z,63.90
2017-06-09T12:45:23.594Z,63.20
2017-06-09T12:47:51.843Z,63.80
2017-06-09T12:50:19.385Z,63.70
2017-06-09T12:52:46.926Z,64.00
2017-06-09T12:55:14.391Z,62.20
2017-06-09T12:57:41.834Z,61.40
2017-06-09T13:00:09.343Z,62.80
2017-06-09T13:02:36.791Z,62.70
2017-06-09T13:05:04.303Z,60.40
2017-06-09T13:07:31.751Z,57.10
2017-06-09T13:09:59.219Z,57.40
2017-06-09T13:12:26.695Z,58.60
2017-06-09T13:14:54.131Z,57.80
2017-06-09T13:17:21.578Z,56.40
2017-06-09T13:19:49.030Z,62.80
2017-06-09T13:22:16.615Z,71.50
2017-06-09T13:24:44.063Z,75.60
2017-06-09T13:27:11.636Z,78.40
2017-06-09T13:29:39.078Z,80.20
2017-06-09T13:32:06.527Z,80.60
2017-06-09T13:34:33.969Z,81.10
2017-06-09T13:37:01.467Z,81.90
2017-06-09T13:39:28.912Z,82.80
2017-06-09T13:41:56.468Z,83.10
2017-06-09T13:44:23.922Z,83.90
2017-06-09T13:46:51.407Z,84.20
2017-06-09T13:49:18.850Z,84.70
2017-06-09T13:51:46.310Z,89.20
2017-06-09T13:54:13.943Z,91.00
2017-06-09T13:56:41.367Z,91.90
2017-06-09T13:59:08.980Z,92.50
2017-06-09T14:01:36.553Z,93.20
2017-06-09T14:04:03.991Z,92.70
2017-06-09T14:06:31.474Z,93.10
2017-06-09T14:08:59.007Z,93.40
2017-06-09T14:11:26.443Z,94.30
2017-06-09T14:13:53.891Z,95.30
2017-06-09T14:16:21.339Z,95.90
2017-06-09T14:18:48.774Z,96.90
2017-06-09T14:21:16.231Z,98.20
2017-06-09T14:23:43.675Z,99.00
2017-06-09T14:26:11.913Z,99.00
2017-06-09T14:28:39.348Z,99.00
2017-06-09T14:31:06.806Z,99.90
2017-06-09T14:33:34.296Z,99.90
2017-06-09T14:36:01.755Z,99.90
2017-06-09T14:38:29.207Z,99.90
2017-06-09T14:40:56.660Z,99.90
2017-06-09T14:43:24.113Z,99.90
2017-06-09T14:45:51.564Z,99.90
2017-06-09T14:48:19.013Z,99.90
2017-06-09T14:50:46.459Z,99.90
2017-06-09T14:53:13.931Z,99.90
2017-06-09T14:55:41.506Z,99.90
2017-06-09T14:58:08.951Z,99.90
2017-06-09T15:00:36.391Z,99.90
2017-06-09T15:03:03.832Z,99.90
2017-06-09T15:05:31.279Z,99.90
2017-06-09T15:07:58.723Z,99.90
2017-06-09T15:10:26.163Z,99.90
2017-06-09T15:12:53.603Z,99.90
2017-06-09T15:15:21.277Z,99.90
2017-06-09T15:17:49.521Z,99.90
2017-06-09T15:20:17.056Z,99.90
2017-06-09T15:22:44.539Z,99.90
2017-06-09T15:25:11.986Z,99.90
2017-06-09T15:27:39.445Z,99.90
2017-06-09T15:30:06.892Z,99.90
2017-06-09T15:32:34.314Z,99.90
2017-06-09T15:35:01.823Z,99.90
2017-06-09T15:37:29.266Z,99.90
2017-06-09T15:39:56.729Z,99.90
2017-06-09T15:42:24.182Z,99.90
2017-06-09T15:44:51.623Z,99.90
2017-06-09T15:47:19.098Z,99.90
2017-06-09T15:49:46.556Z,99.90
2017-06-09T15:52:13.997Z,99.90
2017-06-09T15:54:41.427Z,99.90
2017-06-09T15:57:08.878Z,99.90
2017-06-09T15:59:36.318Z,99.90
2017-06-09T16:02:04.541Z,99.90
2017-06-09T16:04:32.087Z,99.90
2017-06-09T16:06:59.515Z,99.90
2017-06-09T16:09:26.995Z,99.90
2017-06-09T16:11:54.513Z,99.90
2017-06-09T16:14:21.957Z,99.90
2017-06-09T16:16:49.488Z,99.90
2017-06-09T16:19:16.923Z,99.90
2017-06-09T16:21:44.355Z,99.90
2017-06-09T16:24:11.939Z,99.90
2017-06-09T16:26:39.372Z,99.90
2017-06-09T16:29:07.608Z,99.90
2017-06-09T16:31:35.062Z,99.90
2017-06-09T16:34:02.610Z,99.90
2017-06-09T16:36:30.067Z,99.90
2017-06-09T16:38:57.517Z,99.90
2017-06-09T16:41:25.063Z,99.90
2017-06-09T16:43:52.509Z,99.90
2017-06-09T16:46:19.943Z,99.90
2017-06-09T16:48:47.465Z,99.90
2017-06-09T16:51:14.925Z,99.90
2017-06-09T16:53:42.438Z,99.90
2017-06-09T16:56:09.923Z,99.90
2017-06-09T16:58:37.375Z,99.90
2017-06-09T17:01:05.010Z,99.90
2017-06-09T17:03:32.600Z,99.90
2017-06-09T17:06:00.040Z,99.90
2017-06-09T17:08:27.467Z,99.90
2017-06-09T17:10:54.966Z,99.90
2017-06-09T17:13:22.420Z,99.90
2017-06-09T17:15:49.857Z,99.90
2017-06-09T17:18:17.345Z,99.90
2017-06-09T17:20:44.883Z,99.90
2017-06-09T17:23:12.328Z,99.90
2017-06-09T17:25:39.897Z,99.90
2017-06-09T17:28:07.360Z,99.90
2017-06-09T17:30:34.937Z,99.90
2017-06-09T17:33:02.387Z,99.90
2017-06-09T17:35:29.839Z,99.90
2017-06-09T17:37:57.284Z,99.90
2017-06-09T17:40:24.729Z,99.90
2017-06-09T17:42:52.578Z,99.90
2017-06-09T17:45:20.006Z,99.90
2017-06-09T17:47:48.234Z,99.90
2017-06-09T17:50:15.687Z,99.90
2017-06-09T17:52:43.142Z,99.90
2017-06-09T17:55:10.581Z,99.90
2017-06-09T17:57:38.012Z,99.80
2017-06-09T18:00:05.618Z,99.80
2017-06-09T18:02:33.085Z,99.90
2017-06-09T18:05:00.636Z,99.70
2017-06-09T18:07:28.095Z,99.90
2017-06-09T18:09:55.541Z,99.90
2017-06-09T18:12:23.007Z,99.90
2017-06-09T18:14:50.543Z,99.90
2017-06-09T18:17:18.027Z,99.90
2017-06-09T18:19:45.458Z,99.90
2017-06-09T18:22:12.895Z,99.90
2017-06-09T18:24:40.322Z,99.90
2017-06-09T18:27:08.566Z,99.90
2017-06-09T18:29:35.991Z,99.90
2017-06-09T18:32:03.429Z,99.90
2017-06-09T18:34:30.884Z,99.90
2017-06-09T18:36:58.393Z,99.90
2017-06-09T18:39:25.847Z,99.90
2017-06-09T18:41:53.293Z,99.90
2017-06-09T18:44:20.773Z,99.90
2017-06-09T18:46:48.322Z,99.90
2017-06-09T18:49:15.852Z,99.90
2017-06-09T18:51:43.294Z,99.90
2017-06-09T18:54:10.738Z,99.90
2017-06-09T18:56:38.238Z,99.90
2017-06-09T18:59:05.777Z,99.90
2017-06-09T19:01:33.437Z,99.90
2017-06-09T19:04:01.747Z,99.90
2017-06-09T19:06:29.195Z,99.90
2017-06-09T19:08:56.653Z,99.90
2017-06-09T19:11:24.189Z,99.90
2017-06-09T19:13:51.631Z,99.90
2017-06-09T19:16:19.123Z,99.90
2017-06-09T19:18:46.691Z,99.90
2017-06-09T19:21:14.203Z,99.90
2017-06-09T19:23:41.712Z,99.90
2017-06-09T19:26:09.260Z,99.90
2017-06-09T19:28:36.727Z,99.90
2017-06-09T19:31:04.185Z,99.90
2017-06-09T19:33:31.623Z,99.90
2017-06-09T19:35:59.067Z,99.90
2017-06-09T19:38:26.505Z,99.90
2017-06-09T19:40:53.952Z,99.90
2017-06-09T19:43:21.443Z,99.90
2017-06-09T19:45:48.879Z,99.90
2017-06-09T19:48:16.541Z,99.90
2017-06-09T19:50:44.116Z,99.90
2017-06-09T19:53:11.553Z,99.90
2017-06-09T19:55:38.977Z,99.90
2017-06-09T19:58:06.428Z,99.90
2017-06-09T20:00:34.631Z,99.90
2017-06-09T20:03:02.069Z,99.90
2017-06-09T20:05:29.676Z,99.90
2017-06-09T20:07:57.141Z,99.90
2017-06-09T20:10:24.587Z,99.90
2017-06-09T20:12:53.046Z,99.90
2017-06-09T20:15:20.534Z,99.90
2017-06-09T20:17:48.111Z,99.90
2017-06-09T20:20:15.676Z,99.90
2017-06-09T20:22:44.018Z,99.90
2017-06-09T20:25:11.588Z,99.90
2017-06-09T20:27:39.627Z,99.90
2017-06-09T20:30:07.800Z,99.90
2017-06-09T20:32:35.973Z,99.90
2017-06-09T20:35:04.863Z,99.90
2017-06-09T20:37:33.036Z,99.90
2017-06-09T20:40:01.107Z,99.90
2017-06-09T20:42:35.232Z,99.90
2017-06-09T20:45:03.596Z,99.90
2017-06-09T20:47:31.668Z,99.90
2017-06-09T20:49:59.942Z,99.90
2017-06-09T20:52:28.935Z,99.90
2017-06-09T20:54:57.415Z,99.90
2017-06-09T20:57:26.430Z,99.90
2017-06-09T20:59:54.632Z,99.90
2017-06-09T21:02:22.959Z,99.90
2017-06-09T21:04:51.264Z,99.90
2017-06-09T21:07:18.827Z,99.90
2017-06-09T21:09:46.283Z,99.90
2017-06-09T21:12:13.963Z,99.90
2017-06-09T21:14:42.213Z,99.90
2017-06-09T21:17:09.659Z,99.90
2017-06-09T21:19:37.360Z,99.90
2017-06-09T21:22:05.715Z,99.90
2017-06-09T21:24:33.256Z,99.90
2017-06-09T21:27:00.701Z,99.90
2017-06-09T21:29:28.165Z,99.90
2017-06-09T21:31:55.687Z,99.90
2017-06-09T21:34:23.915Z,99.90
2017-06-09T21:36:51.371Z,99.90
2017-06-09T21:39:18.869Z,99.90
2017-06-09T21:41:46.351Z,99.90
2017-06-09T21:44:14.012Z,99.90
2017-06-09T21:46:41.492Z,99.90
2017-06-09T21:49:09.017Z,99.90
2017-06-09T21:51:36.457Z,99.90
2017-06-09T21:54:03.964Z,99.90
2017-06-09T21:56:31.414Z,99.90
2017-06-09T21:58:58.903Z,99.90
2017-06-09T22:01:26.432Z,99.90
2017-06-09T22:03:53.999Z,99.90
2017-06-09T22:06:21.447Z,99.90
2017-06-09T22:08:49.019Z,99.90
2017-06-09T22:11:16.476Z,99.90
2017-06-09T22:13:43.934Z,99.90
2017-06-09T22:16:11.579Z,99.90
2017-06-09T22:18:39.043Z,99.90
2017-06-09T22:21:06.513Z,99.90
2017-06-09T22:23:34.057Z,99.90
2017-06-09T22:26:01.611Z,99.90
2017-06-09T22:28:29.071Z,99.90
2017-06-09T22:30:56.525Z,99.90
2017-06-09T22:33:23.975Z,99.90
2017-06-09T22:35:51.441Z,99.90
2017-06-09T22:38:18.892Z,99.90
2017-06-09T22:40:46.463Z,99.90
2017-06-09T22:43:13.932Z,99.90
2017-06-09T22:45:42.187Z,99.90
2017-06-09T22:48:09.628Z,99.90
2017-06-09T22:50:37.103Z,99.90
2017-06-09T22:53:04.567Z,99.90
2017-06-09T22:55:32.013Z,99.90
2017-06-09T22:57:59.471Z,99.90
2017-06-09T23:00:26.923Z,99.90
2017-06-09T23:02:54.376Z,99.90
2017-06-09T23:05:21.814Z,99.90
2017-06-09T23:07:49.246Z,99.90
2017-06-09T23:10:16.752Z,99.90
2017-06-09T23:12:44.194Z,99.90
2017-06-09T23:15:11.653Z,99.90
2017-06-09T23:17:39.142Z,99.90
2017-06-09T23:20:07.401Z,99.90
2017-06-09T23:22:40.510Z,99.90
2017-06-09T23:25:08.741Z,99.90
2017-06-09T23:27:36.191Z,99.90
2017-06-09T23:30:03.648Z,99.90
2017-06-09T23:32:31.116Z,99.90
2017-06-09T23:34:58.545Z,99.90
2017-06-09T23:37:26.003Z,99.90
2017-06-09T23:39:53.495Z,99.90
2017-06-09T23:42:21.053Z,99.90
2017-06-09T23:44:48.612Z,99.90
2017-06-09T23:47:16.084Z,99.90
2017-06-09T23:49:43.720Z,99.90
2017-06-09T23:52:11.160Z,99.90
2017-06-09T23:54:38.643Z,99.90
2017-06-09T23:57:06.187Z,99.90
2017-06-09T23:59:33.640Z,99.90
